Time;durP1;ratioP1;P1;durP2;ratioP2;P2;SDS_P1;SDS_P2;PMS_P1;PMS_P2;Temp;Humidity;BMP_temperature;BMP_pressure;BME280_temperature;BME280_humidity;BME280_pressure;Samples;Min_cycle;Max_cycle;Signal;HPM_P1;HPM_P2
2022/06/19 00:02:08;;;;;;;4.00;3.03;;;;;;;24.12;57.84;100651.91;5026488;28;20049;-65
2022/06/19 00:04:35;;;;;;;8.98;3.00;;;;;;;24.07;57.92;100656.94;5024236;28;20104;-65
2022/06/19 00:07:01;;;;;;;11.23;3.30;;;;;;;23.94;58.23;100643.22;5022143;28;20049;-65
2022/06/19 00:09:28;;;;;;;9.55;3.75;;;;;;;23.87;58.45;100633.34;5023294;28;20045;-65
2022/06/19 00:11:56;;;;;;;7.13;3.30;;;;;;;23.97;58.18;100632.16;5022223;28;20521;-65
2022/06/19 00:14:23;;;;;;;6.13;3.38;;;;;;;23.93;58.45;100624.63;5025329;28;20083;-65
2022/06/19 00:16:50;;;;;;;6.82;3.40;;;;;;;24.02;58.07;100619.09;5034371;28;20132;-65
2022/06/19 00:19:16;;;;;;;5.90;3.22;;;;;;;24.13;57.17;100616.09;5023168;28;20469;-65
2022/06/19 00:21:44;;;;;;;7.85;3.75;;;;;;;24.10;57.43;100629.81;5025598;28;20061;-65
2022/06/19 00:24:10;;;;;;;7.32;3.28;;;;;;;24.01;57.65;100622.78;5023985;28;20468;-65
2022/06/19 00:26:37;;;;;;;8.50;3.13;;;;;;;23.93;57.68;100614.75;5031062;28;20114;-66
2022/06/19 00:29:05;;;;;;;6.72;3.05;;;;;;;23.94;57.47;100578.94;5016740;28;20076;-70
2022/06/19 00:31:31;;;;;;;4.85;3.10;;;;;;;24.01;56.81;100566.53;5024227;28;20053;-71
2022/06/19 00:33:57;;;;;;;4.43;3.05;;;;;;;24.16;57.08;100556.00;5024865;28;20073;-70
2022/06/19 00:36:26;;;;;;;7.18;3.55;;;;;;;24.33;56.37;100562.13;5022342;28;20053;-70
2022/06/19 00:38:53;;;;;;;4.95;3.13;;;;;;;24.31;56.73;100562.31;5023764;28;20057;-70
2022/06/19 00:41:19;;;;;;;5.55;3.20;;;;;;;24.05;57.12;100559.00;5024724;28;20045;-70
2022/06/19 00:43:57;;;;;;;8.75;3.70;;;;;;;23.83;57.97;100563.22;5022269;28;20104;-70
2022/06/19 00:46:47;;;;;;;6.57;3.47;;;;;;;23.44;59.36;100544.31;5024505;28;20525;-70
2022/06/19 00:49:17;;;;;;;5.43;3.30;;;;;;;23.28;59.90;100547.78;5024373;28;20103;-70
2022/06/19 00:51:44;;;;;;;8.13;3.13;;;;;;;23.55;59.13;100541.31;5023358;28;20072;-70
2022/06/19 00:54:14;;;;;;;7.18;3.05;;;;;;;23.51;59.42;100539.13;5022345;28;20050;-70
2022/06/19 00:56:42;;;;;;;7.72;3.53;;;;;;;23.61;59.36;100529.91;5004387;28;20045;-70
2022/06/19 00:59:10;;;;;;;5.57;3.08;;;;;;;23.67;58.94;100523.91;5003789;28;20085;-70
2022/06/19 01:01:38;;;;;;;8.07;3.58;;;;;;;23.71;58.39;100516.38;5003251;28;20045;-70
2022/06/19 01:04:12;;;;;;;12.48;3.67;;;;;;;23.69;58.59;100508.50;5020277;28;20053;-70
2022/06/19 01:06:39;;;;;;;7.45;3.50;;;;;;;23.59;59.25;100510.53;5032503;28;20041;-70
2022/06/19 01:09:05;;;;;;;9.32;3.75;;;;;;;23.61;59.49;100507.69;5027301;28;20049;-70
2022/06/19 01:11:37;;;;;;;6.07;3.65;;;;;;;23.63;59.55;100503.81;5026937;28;20045;-71
2022/06/19 01:14:06;;;;;;;6.97;3.50;;;;;;;23.72;59.32;100499.31;5024437;28;20049;-70
2022/06/19 01:16:34;;;;;;;10.65;4.00;;;;;;;23.84;58.52;100489.91;5027409;28;20068;-71
2022/06/19 01:19:00;;;;;;;9.07;3.90;;;;;;;23.92;58.49;100486.38;5024747;28;20143;-72
2022/06/19 01:21:35;;;;;;;7.38;3.67;;;;;;;23.82;59.05;100481.22;5024395;28;20049;-71
2022/06/19 01:24:06;;;;;;;7.32;3.92;;;;;;;23.75;58.84;100482.91;5032131;28;20041;-71
2022/06/19 01:26:40;;;;;;;4.82;3.78;;;;;;;23.83;58.86;100474.03;5026743;28;20049;-71
2022/06/19 01:29:06;;;;;;;5.60;3.88;;;;;;;23.84;58.69;100470.31;5024217;28;20465;-71
2022/06/19 01:31:36;;;;;;;13.27;4.70;;;;;;;23.70;59.13;100471.84;5026239;28;20081;-71
2022/06/19 01:34:26;;;;;;;7.97;3.75;;;;;;;23.57;59.16;100466.19;5024881;28;20489;-71
2022/06/19 01:36:54;;;;;;;12.48;4.43;;;;;;;23.52;59.35;100464.03;5028861;28;20037;-71
2022/06/19 01:39:22;;;;;;;8.48;4.05;;;;;;;23.60;58.73;100460.50;5024336;28;20045;-71
2022/06/19 01:41:50;;;;;;;7.38;3.95;;;;;;;23.55;59.11;100461.00;5026788;28;20107;-71
2022/06/19 01:44:16;;;;;;;6.38;4.00;;;;;;;23.29;60.07;100458.50;5025572;28;20076;-71
2022/06/19 01:46:43;;;;;;;9.13;4.20;;;;;;;23.42;59.66;100454.50;5023191;28;20049;-72
2022/06/19 01:49:09;;;;;;;5.20;3.70;;;;;;;23.09;59.89;100443.78;5022714;28;20053;-72
2022/06/19 01:51:35;;;;;;;10.43;4.80;;;;;;;22.90;61.09;100446.78;5023180;28;20064;-71
2022/06/19 01:54:07;;;;;;;15.02;4.82;;;;;;;22.82;60.94;100428.06;5025042;28;20045;-71
2022/06/19 01:56:33;;;;;;;14.10;4.53;;;;;;;22.52;62.47;100426.78;5027599;28;20056;-72
2022/06/19 01:59:04;;;;;;;12.43;4.28;;;;;;;22.51;62.40;100425.13;5026173;28;20089;-72
2022/06/19 02:01:33;;;;;;;6.65;4.22;;;;;;;23.33;59.93;100416.19;5026940;28;20042;-72
2022/06/19 02:04:01;;;;;;;8.88;4.30;;;;;;;22.90;61.49;100417.38;5030924;28;20049;-72
2022/06/19 02:06:30;;;;;;;11.27;4.15;;;;;;;22.47;62.63;100405.06;5027078;28;20099;-72
2022/06/19 02:08:59;;;;;;;7.68;4.10;;;;;;;22.53;62.03;100403.59;5024470;28;20041;-72
2022/06/19 02:11:26;;;;;;;8.77;4.60;;;;;;;22.55;62.25;100402.41;5024566;28;20452;-72
2022/06/19 02:13:53;;;;;;;11.55;4.47;;;;;;;22.26;63.32;100399.34;5025615;28;20528;-72
2022/06/19 02:16:23;;;;;;;8.98;3.90;;;;;;;21.62;65.91;100397.19;5025250;28;20112;-72
2022/06/19 02:18:51;;;;;;;10.55;4.70;;;;;;;21.25;67.77;100390.28;5035040;28;20593;-72
2022/06/19 02:21:20;;;;;;;7.57;4.40;;;;;;;20.94;69.17;100380.19;5031358;28;20065;-72
2022/06/19 02:23:49;;;;;;;9.15;4.50;;;;;;;20.77;69.99;100373.88;5022446;28;20046;-72
2022/06/19 02:26:16;;;;;;;9.50;4.40;;;;;;;20.46;71.45;100364.59;5024061;28;20045;-72
2022/06/19 02:28:46;;;;;;;10.50;5.28;;;;;;;20.46;71.56;100364.59;5024442;28;20076;-72
2022/06/19 02:31:12;;;;;;;10.85;5.05;;;;;;;20.55;71.02;100351.19;5025642;28;20560;-72
2022/06/19 02:33:46;;;;;;;13.30;4.85;;;;;;;20.65;71.05;100353.78;5025486;28;20480;-72
2022/06/19 02:36:36;;;;;;;8.30;5.47;;;;;;;20.47;71.64;100350.31;5024985;28;20490;-72
2022/06/19 02:39:25;;;;;;;8.55;5.38;;;;;;;20.85;70.47;100347.28;5026068;28;20072;-72
2022/06/19 02:41:59;;;;;;;11.23;5.60;;;;;;;20.68;71.10;100349.00;5016571;28;20390;-71
2022/06/19 02:44:32;;;;;;;14.40;5.78;;;;;;;20.77;70.56;100332.06;5024341;28;20506;-71
2022/06/19 02:46:58;;;;;;;12.60;5.85;;;;;;;20.69;70.79;100333.84;5027547;28;20042;-71
2022/06/19 02:49:26;;;;;;;12.73;5.72;;;;;;;21.16;68.92;100332.56;5024656;28;20557;-71
2022/06/19 02:51:52;;;;;;;9.85;5.70;;;;;;;20.98;69.21;100337.09;5023893;28;20053;-71
2022/06/19 02:54:19;;;;;;;8.95;5.85;;;;;;;21.03;69.42;100332.09;5041085;28;20409;-71
2022/06/19 02:56:45;;;;;;;10.15;6.40;;;;;;;21.16;68.56;100329.91;5027448;28;20045;-72
2022/06/19 02:59:11;;;;;;;9.35;5.90;;;;;;;21.25;67.93;100320.09;5021907;28;20045;-71
2022/06/19 03:01:38;;;;;;;9.82;6.18;;;;;;;21.07;69.17;100312.13;5024718;28;20049;-71
2022/06/19 03:04:04;;;;;;;9.75;5.78;;;;;;;21.38;67.76;100303.69;5024621;28;20099;-71
2022/06/19 03:06:32;;;;;;;8.50;5.88;;;;;;;22.12;64.51;100283.31;5027711;28;20042;-72
2022/06/19 03:08:58;;;;;;;12.93;6.47;;;;;;;22.03;65.32;100286.94;5025462;28;20049;-72
2022/06/19 03:11:25;;;;;;;9.90;5.38;;;;;;;22.09;64.43;100275.63;5022299;28;20037;-71
2022/06/19 03:13:51;;;;;;;12.68;5.90;;;;;;;22.32;63.74;100276.66;5023139;28;20049;-72
2022/06/19 03:16:18;;;;;;;9.98;5.45;;;;;;;22.22;63.41;100272.47;5024247;28;20056;-72
2022/06/19 03:18:45;;;;;;;14.23;5.93;;;;;;;22.36;63.43;100273.66;5023477;28;20549;-72
2022/06/19 03:21:11;;;;;;;8.77;6.10;;;;;;;22.31;63.76;100260.81;5022863;28;20073;-72
2022/06/19 03:23:39;;;;;;;12.07;5.72;;;;;;;22.12;64.26;100267.28;5022789;28;20041;-72
2022/06/19 03:26:05;;;;;;;8.70;6.07;;;;;;;22.06;64.15;100272.47;5023874;28;20041;-71
2022/06/19 03:28:32;;;;;;;12.43;6.30;;;;;;;22.08;63.80;100273.97;5023204;28;20687;-72
2022/06/19 03:30:58;;;;;;;14.23;5.85;;;;;;;22.17;63.43;100269.47;5023859;28;20456;-72
2022/06/19 03:33:25;;;;;;;8.30;6.10;;;;;;;22.17;63.23;100264.13;5024064;28;20111;-72
2022/06/19 03:35:52;;;;;;;10.75;5.68;;;;;;;22.13;63.47;100260.13;5025010;28;20041;-72
2022/06/19 03:38:18;;;;;;;11.20;6.63;;;;;;;22.15;62.81;100263.44;5025914;28;20049;-72
2022/06/19 03:40:46;;;;;;;9.07;6.10;;;;;;;22.63;61.29;100260.78;5024436;28;20497;-72
2022/06/19 03:43:13;;;;;;;14.20;6.05;;;;;;;22.54;61.72;100255.63;5023404;28;20413;-72
2022/06/19 03:45:40;;;;;;;11.20;5.45;;;;;;;22.05;63.55;100242.25;5019254;28;20547;-72
2022/06/19 03:48:07;;;;;;;10.38;5.65;;;;;;;21.47;65.74;100238.72;5020283;28;20045;-71
2022/06/19 03:50:34;;;;;;;11.65;6.43;;;;;;;21.31;66.86;100235.00;5032416;28;20132;-71
2022/06/19 03:53:00;;;;;;;14.65;6.93;;;;;;;20.93;68.57;100240.75;5024325;28;20041;-72
2022/06/19 03:55:26;;;;;;;17.00;8.10;;;;;;;21.14;68.48;100227.06;5024837;28;20038;-72
2022/06/19 03:57:54;;;;;;;14.38;7.93;;;;;;;21.34;67.60;100226.66;5025401;28;20049;-72
2022/06/19 04:00:21;;;;;;;11.82;7.45;;;;;;;20.95;69.02;100228.13;5024134;28;20072;-71
2022/06/19 04:02:47;;;;;;;22.10;8.25;;;;;;;20.77;69.67;100227.31;5024387;28;20103;-71
2022/06/19 04:05:15;;;;;;;16.70;8.23;;;;;;;20.78;69.70;100231.66;5024747;28;20038;-71
2022/06/19 04:07:46;;;;;;;13.80;8.65;;;;;;;20.39;71.05;100226.75;5024795;28;20100;-71
2022/06/19 04:10:13;;;;;;;12.93;8.57;;;;;;;20.70;69.93;100223.59;5022223;28;20049;-70
2022/06/19 04:12:40;;;;;;;17.13;9.80;;;;;;;20.89;69.38;100232.25;5021051;28;20559;-70
2022/06/19 04:15:09;;;;;;;23.27;10.02;;;;;;;20.82;69.89;100236.53;5023848;28;20053;-70
2022/06/19 04:17:36;;;;;;;18.23;9.07;;;;;;;20.94;69.54;100238.94;5029076;28;20048;-71
2022/06/19 04:20:03;;;;;;;15.18;8.82;;;;;;;20.96;69.28;100232.44;5036980;28;20049;-71
2022/06/19 04:22:30;;;;;;;17.42;9.18;;;;;;;21.26;67.88;100226.63;5042994;28;20046;-70
2022/06/19 04:24:56;;;;;;;18.77;10.05;;;;;;;21.12;68.34;100235.22;5042685;28;20049;-70
2022/06/19 04:27:23;;;;;;;20.58;9.43;;;;;;;21.28;67.68;100223.81;5016295;28;20050;-70
2022/06/19 04:29:50;;;;;;;19.50;10.90;;;;;;;21.47;66.94;100217.41;5004975;28;20053;-70
2022/06/19 04:32:17;;;;;;;30.05;11.13;;;;;;;21.59;67.21;100226.75;5019804;28;20049;-70
2022/06/19 04:34:44;;;;;;;23.40;10.93;;;;;;;21.30;67.43;100213.81;5023051;28;20049;-70
2022/06/19 04:37:10;;;;;;;24.92;11.07;;;;;;;21.48;66.85;100209.22;5026352;28;20171;-70
2022/06/19 04:39:36;;;;;;;23.92;9.65;;;;;;;22.10;65.29;100205.19;5026921;28;20037;-71
2022/06/19 04:42:05;;;;;;;18.63;10.15;;;;;;;22.59;64.02;100214.03;5026387;28;20076;-71
2022/06/19 04:44:32;;;;;;;24.30;10.60;;;;;;;22.53;63.76;100211.19;5028667;28;20109;-70
2022/06/19 04:46:58;;;;;;;18.83;10.80;;;;;;;22.54;63.94;100200.34;5027040;28;20095;-70
2022/06/19 04:49:26;;;;;;;23.75;10.65;;;;;;;22.71;63.17;100203.84;5030139;28;20450;-71
2022/06/19 04:51:52;;;;;;;22.42;9.68;;;;;;;22.64;63.29;100197.50;5029473;28;20103;-70
2022/06/19 04:54:18;;;;;;;23.13;10.60;;;;;;;22.65;63.42;100199.19;5028210;28;20099;-70
2022/06/19 04:56:46;;;;;;;26.33;10.52;;;;;;;23.20;61.91;100201.88;5025972;28;20046;-70
2022/06/19 04:59:12;;;;;;;19.58;10.45;;;;;;;23.54;60.81;100193.56;5027676;28;20132;-70
2022/06/19 05:01:40;;;;;;;22.58;10.02;;;;;;;23.23;61.71;100197.03;5027451;28;20073;-70
2022/06/19 05:04:09;;;;;;;29.52;10.38;;;;;;;23.10;61.82;100186.03;5026282;28;20572;-70
2022/06/19 05:06:38;;;;;;;17.27;10.85;;;;;;;23.23;61.35;100180.13;5027843;28;20075;-70
2022/06/19 05:09:05;;;;;;;20.23;10.65;;;;;;;23.85;59.39;100162.25;5027055;28;22686;-70
2022/06/19 05:11:32;;;;;;;24.83;10.07;;;;;;;22.74;62.00;100177.63;5026671;28;20049;-70
2022/06/19 05:13:59;;;;;;;22.70;10.38;;;;;;;23.35;60.72;100170.72;5028059;28;20096;-70
2022/06/19 05:16:26;;;;;;;14.52;10.18;;;;;;;23.29;60.38;100166.06;5024544;28;20063;-70
2022/06/19 05:18:54;;;;;;;20.17;9.80;;;;;;;23.56;60.18;100162.09;5025380;28;20064;-70
2022/06/19 05:21:21;;;;;;;17.95;9.85;;;;;;;23.86;59.50;100157.72;5027142;28;20049;-70
2022/06/19 05:23:50;;;;;;;23.17;10.02;;;;;;;23.47;59.60;100153.28;5028010;28;20045;-70
2022/06/19 05:26:20;;;;;;;21.73;9.68;;;;;;;23.37;60.28;100157.16;5027206;28;20053;-70
2022/06/19 05:28:49;;;;;;;22.35;9.88;;;;;;;23.60;59.34;100142.84;5018120;28;20048;-70
2022/06/19 05:31:16;;;;;;;25.15;9.73;;;;;;;23.96;58.82;100134.19;5026891;28;20508;-70
2022/06/19 05:33:43;;;;;;;21.55;9.32;;;;;;;24.61;56.79;100119.19;5026712;28;20082;-70
2022/06/19 05:36:10;;;;;;;24.65;9.50;;;;;;;24.44;57.24;100135.63;5025667;28;20575;-70
2022/06/19 05:38:36;;;;;;;22.40;8.43;;;;;;;23.99;57.49;100126.63;5026943;28;20091;-70
2022/06/19 05:41:04;;;;;;;20.02;8.93;;;;;;;24.73;56.70;100119.56;5024993;28;20049;-70
2022/06/19 05:43:33;;;;;;;25.42;9.32;;;;;;;25.28;55.06;100119.06;5025849;28;20155;-70
2022/06/19 05:46:02;;;;;;;22.70;9.98;;;;;;;24.62;56.90;100112.00;5027932;28;20045;-71
2022/06/19 05:48:29;;;;;;;19.08;8.35;;;;;;;25.52;54.78;100101.81;5025496;28;20099;-71
2022/06/19 05:51:01;;;;;;;16.98;7.97;;;;;;;25.17;54.27;100098.91;5021944;28;20073;-71
2022/06/19 05:53:29;;;;;;;17.88;7.85;;;;;;;25.06;54.51;100093.22;5021563;28;20146;-71
2022/06/19 05:55:55;;;;;;;17.17;7.85;;;;;;;25.47;53.25;100090.78;5027731;28;20100;-71
2022/06/19 05:58:23;;;;;;;17.48;7.57;;;;;;;25.41;53.16;100088.88;5026365;28;20053;-70
2022/06/19 06:00:50;;;;;;;20.65;7.32;;;;;;;25.27;53.82;100089.75;5024625;28;20041;-70
2022/06/19 06:03:19;;;;;;;18.52;7.35;;;;;;;25.27;53.42;100097.81;5027413;28;20053;-70
2022/06/19 06:05:46;;;;;;;15.07;6.80;;;;;;;25.33;53.59;100100.56;5025550;28;20051;-70
2022/06/19 06:08:13;;;;;;;16.23;6.68;;;;;;;25.35;52.81;100098.50;5024545;28;20045;-70
2022/06/19 06:10:40;;;;;;;18.80;7.38;;;;;;;25.71;52.63;100095.81;5026067;28;20049;-71
2022/06/19 06:13:07;;;;;;;15.40;6.53;;;;;;;26.55;50.32;100104.78;5025622;28;20053;-70
2022/06/19 06:15:35;;;;;;;15.65;6.68;;;;;;;26.58;50.29;100113.28;5026149;28;20107;-70
2022/06/19 06:18:03;;;;;;;16.60;7.15;;;;;;;26.50;49.96;100118.78;5026808;28;20526;-70
2022/06/19 06:20:31;;;;;;;16.90;6.70;;;;;;;26.87;49.22;100125.66;5024791;28;20130;-70
2022/06/19 06:22:58;;;;;;;18.38;6.70;;;;;;;27.39;47.23;100122.34;5024387;28;20572;-70
2022/06/19 06:25:24;;;;;;;23.20;6.28;;;;;;;28.11;46.31;100128.97;5025562;28;20049;-72
2022/06/19 06:27:51;;;;;;;19.48;5.97;;;;;;;28.40;45.84;100125.84;5027785;28;20060;-72
2022/06/19 06:30:18;;;;;;;14.50;5.38;;;;;;;28.15;45.04;100133.75;5021123;28;20049;-72
2022/06/19 06:32:46;;;;;;;18.77;6.43;;;;;;;29.12;42.76;100127.56;5045313;28;20091;-72
2022/06/19 06:35:12;;;;;;;14.75;5.90;;;;;;;28.73;43.54;100131.19;5034800;28;20421;-72
2022/06/19 06:37:39;;;;;;;19.10;5.40;;;;;;;28.66;43.24;100122.25;5025094;28;20041;-71
2022/06/19 06:40:06;;;;;;;16.20;5.68;;;;;;;28.79;42.40;100114.97;5029131;28;20308;-71
2022/06/19 06:42:33;;;;;;;15.85;5.60;;;;;;;29.33;41.27;100103.81;5037702;28;20075;-71
2022/06/19 06:44:59;;;;;;;17.80;5.20;;;;;;;28.22;43.53;100104.06;5030362;28;20049;-71
2022/06/19 06:47:26;;;;;;;19.75;5.07;;;;;;;28.98;43.55;100099.75;5026195;28;20046;-71
2022/06/19 06:49:54;;;;;;;24.63;5.50;;;;;;;29.24;41.42;100082.63;5030901;28;20052;-72
2022/06/19 06:52:20;;;;;;;15.13;4.57;;;;;;;29.40;40.71;100074.03;5024188;28;20180;-70
2022/06/19 06:54:46;;;;;;;16.95;4.50;;;;;;;29.08;40.34;100056.97;5026114;28;20065;-66
2022/06/19 06:57:13;;;;;;;22.33;5.30;;;;;;;29.73;40.45;100058.44;5030134;28;20122;-66
2022/06/19 06:59:39;;;;;;;13.95;4.70;;;;;;;30.06;38.36;100054.66;5022341;28;20456;-66
2022/06/19 07:02:07;;;;;;;18.90;4.80;;;;;;;30.47;37.38;100060.31;5025315;28;20073;-66
2022/06/19 07:04:33;;;;;;;24.75;5.03;;;;;;;30.85;37.69;100065.50;5021783;28;20064;-66
2022/06/19 07:07:02;;;;;;;13.30;3.90;;;;;;;30.46;36.89;100071.34;5016567;28;20049;-65
2022/06/19 07:09:28;;;;;;;14.35;4.30;;;;;;;30.81;35.92;100072.41;5022052;28;20051;-65
2022/06/19 07:11:55;;;;;;;19.25;4.50;;;;;;;31.11;34.83;100058.94;5024150;28;20046;-65
2022/06/19 07:14:21;;;;;;;18.58;4.40;;;;;;;30.49;36.31;100079.03;5022727;28;20045;-66
2022/06/19 07:16:47;;;;;;;17.10;4.07;;;;;;;30.93;36.06;100076.81;5026216;28;20045;-65
2022/06/19 07:19:14;;;;;;;15.10;4.47;;;;;;;31.95;33.27;100083.13;5023139;28;20122;-65
2022/06/19 07:21:40;;;;;;;19.50;4.63;;;;;;;31.78;33.55;100074.81;5024715;28;20524;-66
2022/06/19 07:24:08;;;;;;;24.25;4.70;;;;;;;31.68;33.42;100065.63;5026653;28;20099;-66
2022/06/19 07:26:35;;;;;;;13.88;4.45;;;;;;;31.74;33.63;100048.44;5025747;28;20533;-66
2022/06/19 07:29:01;;;;;;;21.65;4.55;;;;;;;31.90;33.56;100055.03;5022806;28;20049;-66
2022/06/19 07:31:27;;;;;;;22.58;4.05;;;;;;;32.07;32.95;100042.47;5024756;28;20092;-66
2022/06/19 07:33:54;;;;;;;16.50;4.60;;;;;;;32.19;33.06;100044.13;5024047;28;20464;-66
2022/06/19 07:36:23;;;;;;;19.02;3.75;;;;;;;32.36;30.99;100055.09;5022077;28;20045;-66
2022/06/19 07:38:49;;;;;;;18.63;4.45;;;;;;;32.62;30.59;100041.03;5023473;28;20486;-66
2022/06/19 07:41:17;;;;;;;20.23;3.70;;;;;;;33.44;29.13;100052.44;5019532;28;20041;-66
2022/06/19 07:43:45;;;;;;;17.80;4.18;;;;;;;33.30;30.69;100045.63;5024422;28;20187;-66
2022/06/19 07:46:12;;;;;;;14.38;3.88;;;;;;;33.52;30.38;100043.06;5024821;28;20576;-66
2022/06/19 07:51:25;;;;;;;24.90;4.05;;;;;;;33.93;29.20;100053.56;5033498;28;20056;-67
2022/06/19 07:53:51;;;;;;;19.13;3.55;;;;;;;33.84;29.72;100057.78;5033413;28;20046;-68
2022/06/19 07:56:19;;;;;;;13.18;3.80;;;;;;;34.28;29.60;100053.31;5041237;28;20095;-68
2022/06/19 07:58:46;;;;;;;16.65;3.90;;;;;;;34.78;28.95;100046.91;5028085;28;20061;-67
2022/06/19 08:01:13;;;;;;;17.92;3.60;;;;;;;34.88;28.22;100042.41;5031056;28;20133;-66
2022/06/19 08:03:39;;;;;;;17.27;4.47;;;;;;;34.99;25.89;100037.91;5013527;28;20050;-69
2022/06/19 08:06:06;;;;;;;28.13;4.85;;;;;;;34.73;24.89;100016.91;5040277;28;20620;-69
2022/06/19 08:08:33;;;;;;;20.20;3.30;;;;;;;34.93;24.46;100019.84;5025025;28;20049;-69
2022/06/19 08:11:01;;;;;;;20.38;3.60;;;;;;;35.09;25.08;100027.09;5027761;28;20041;-70
2022/06/19 08:13:30;;;;;;;21.75;3.13;;;;;;;35.30;24.56;100012.63;5029120;28;20068;-69
2022/06/19 08:15:58;;;;;;;32.25;3.80;;;;;;;34.64;24.17;100017.34;5026836;28;20435;-70
2022/06/19 08:18:25;;;;;;;21.17;3.83;;;;;;;33.93;24.98;100011.91;5033916;28;20627;-71
2022/06/19 08:20:52;;;;;;;21.73;3.47;;;;;;;34.36;25.89;100027.56;5032784;28;20037;-70
2022/06/19 08:23:19;;;;;;;19.35;3.63;;;;;;;34.56;25.18;100015.03;5031934;28;20041;-69
2022/06/19 08:25:47;;;;;;;15.95;3.70;;;;;;;34.70;24.76;99997.25;5022112;28;20498;-70
2022/06/19 08:28:15;;;;;;;30.10;3.70;;;;;;;35.02;24.80;99997.34;5028276;28;20688;-71
2022/06/19 08:30:43;;;;;;;22.52;3.72;;;;;;;35.25;23.87;99998.97;5032491;28;20109;-70
2022/06/19 08:33:10;;;;;;;19.33;4.07;;;;;;;35.37;23.94;100012.41;5043099;28;20088;-70
2022/06/19 08:35:39;;;;;;;29.50;3.67;;;;;;;35.64;24.16;100008.59;5026580;28;20042;-70
2022/06/19 08:38:12;;;;;;;24.90;3.85;;;;;;;36.12;22.91;100009.50;5026354;28;20457;-70
2022/06/19 08:40:52;;;;;;;19.70;4.18;;;;;;;36.73;22.34;100009.84;5024037;28;20041;-71
2022/06/19 08:43:37;;;;;;;21.13;3.55;;;;;;;37.12;22.16;100007.50;5027660;28;20213;-70
2022/06/19 08:46:17;;;;;;;17.90;3.60;;;;;;;36.93;21.90;100007.97;5028072;28;20532;-70
2022/06/19 08:49:07;;;;;;;17.70;4.35;;;;;;;37.44;21.68;100002.59;5047827;28;20495;-71
2022/06/19 08:51:43;;;;;;;19.63;3.85;;;;;;;37.71;20.86;99994.16;5038462;28;20060;-70
2022/06/19 08:54:23;;;;;;;16.38;4.10;;;;;;;37.17;22.54;100010.25;5047657;28;20040;-70
2022/06/19 08:57:01;;;;;;;27.40;5.07;;;;;;;36.94;22.31;99995.97;5047534;28;20094;-73
2022/06/19 08:59:37;;;;;;;20.60;3.72;;;;;;;36.88;22.38;99997.00;5029446;28;20060;-72
2022/06/19 09:02:14;;;;;;;15.68;3.67;;;;;;;37.60;21.71;100003.44;5035412;28;20090;-72
2022/06/19 09:07:45;;;;;;;31.75;4.28;;;;;;;38.72;26.37;100018.56;5020714;28;20147;-72
2022/06/19 09:10:31;;;;;;;19.30;5.40;;;;;;;38.84;27.50;100014.41;5028803;28;20049;-72
2022/06/19 09:13:17;;;;;;;16.65;4.47;;;;;;;38.70;26.51;100039.94;5016761;28;20049;-72
2022/06/19 09:15:51;;;;;;;19.20;4.60;;;;;;;38.68;26.86;100039.41;5027321;28;20042;-72
2022/06/19 09:18:27;;;;;;;13.68;4.47;;;;;;;38.25;28.67;100044.44;5033523;28;20114;-72
2022/06/19 09:21:02;;;;;;;15.10;4.20;;;;;;;38.33;27.01;100049.34;5032468;28;20452;-72
2022/06/19 09:23:58;;;;;;;12.70;4.72;;;;;;;38.17;28.14;100046.94;5025955;28;20068;-73
2022/06/19 09:26:30;;;;;;;17.08;4.18;;;;;;;37.99;27.89;100051.88;5042237;28;20467;-72
2022/06/19 09:29:02;;;;;;;12.63;4.13;;;;;;;37.92;27.23;100051.31;5038121;28;20045;-72
2022/06/19 09:31:34;;;;;;;17.10;4.20;;;;;;;38.29;29.51;100051.00;5036568;28;20077;-72
2022/06/19 09:34:09;;;;;;;14.98;4.28;;;;;;;38.66;27.08;100039.69;5036644;28;20072;-73
2022/06/19 09:36:40;;;;;;;10.68;4.28;;;;;;;38.67;26.73;100040.50;5031554;28;20048;-72
2022/06/19 09:39:12;;;;;;;16.20;4.30;;;;;;;38.47;28.92;100055.13;5022780;28;20073;-72
2022/06/19 09:41:41;;;;;;;;;;;;;;;38.70;29.84;100059.13;5025294;28;20045;-72
2022/06/19 09:44:14;;;;;;;12.63;4.45;;;;;;;38.43;28.83;100065.00;5024277;28;19928;-72
2022/06/19 09:46:47;;;;;;;13.73;4.93;;;;;;;38.26;28.48;100069.91;5024377;28;20045;-72
2022/06/19 09:49:21;;;;;;;8.73;4.20;;;;;;;38.02;28.97;100055.19;5024593;28;20076;-72
2022/06/19 09:51:55;;;;;;;12.70;4.65;;;;;;;38.25;28.22;100051.88;5032967;28;20053;-72
2022/06/19 09:54:26;;;;;;;13.55;4.82;;;;;;;37.89;29.78;100062.81;5042984;28;20044;-73
2022/06/19 09:56:56;;;;;;;;;;;;;;;38.06;28.87;100068.03;5035627;28;20106;-72
2022/06/19 09:59:29;;;;;;;16.08;4.40;;;;;;;38.34;29.96;100056.47;5039223;28;19921;-73
2022/06/19 10:02:02;;;;;;;12.02;4.47;;;;;;;38.57;28.68;100063.28;5025139;28;20054;-72
2022/06/19 10:04:36;;;;;;;13.15;4.88;;;;;;;38.95;29.03;100064.53;5021857;28;20425;-72
2022/06/19 10:07:09;;;;;;;9.23;4.35;;;;;;;39.07;28.13;100055.94;5044284;28;20049;-72
2022/06/19 10:09:43;;;;;;;12.52;4.00;;;;;;;39.11;28.13;100052.38;5025364;28;20099;-73
2022/06/19 10:12:16;;;;;;;18.10;4.68;;;;;;;39.34;26.78;100046.22;5027232;28;20543;-72
2022/06/19 10:14:46;;;;;;;17.10;4.45;;;;;;;39.19;27.38;100049.03;5027417;28;20049;-72
2022/06/19 10:17:19;;;;;;;13.77;4.70;;;;;;;39.23;28.16;100044.63;5024253;28;20119;-72
2022/06/19 10:19:52;;;;;;;8.85;3.95;;;;;;;39.50;26.50;100044.19;5024220;28;20037;-72
2022/06/19 10:22:34;;;;;;;9.85;4.15;;;;;;;39.62;28.50;100054.78;5039833;28;20095;-72
2022/06/19 10:25:21;;;;;;;12.63;4.75;;;;;;;39.36;25.80;100065.13;5007495;28;20088;-72
2022/06/19 10:27:56;;;;;;;11.13;3.83;;;;;;;39.39;26.59;100076.38;5004212;28;20524;-72
2022/06/19 10:30:31;;;;;;;12.60;4.57;;;;;;;38.91;25.61;100085.38;5024455;28;20046;-72
2022/06/19 10:33:25;;;;;;;14.50;4.25;;;;;;;38.78;27.39;100092.25;5024443;28;20049;-72
2022/06/19 10:35:59;;;;;;;13.55;4.60;;;;;;;38.29;27.48;100085.78;5024253;28;20102;-72
2022/06/19 10:38:44;;;;;;;16.45;4.57;;;;;;;38.08;27.75;100097.88;5027697;28;20099;-71
2022/06/19 10:44:08;;;;;;;9.68;3.92;;;;;;;37.84;27.63;100112.06;5024977;28;20034;-72
2022/06/19 10:46:34;;;;;;;11.73;4.10;;;;;;;37.87;28.38;100118.94;5025220;28;20053;-72
2022/06/19 10:49:10;;;;;;;14.00;4.20;;;;;;;38.23;28.04;100120.59;5026464;28;20103;-72
2022/06/19 10:51:51;;;;;;;10.20;3.88;;;;;;;38.00;27.38;100132.91;5027062;28;20045;-72
2022/06/19 10:54:35;;;;;;;;;;;;;;;37.68;28.92;100137.78;5033766;28;20045;-72
2022/06/19 10:57:10;;;;;;;15.10;3.97;;;;;;;37.45;28.15;100132.78;5015825;28;20416;-72
2022/06/19 10:59:36;;;;;;;16.92;3.95;;;;;;;37.27;27.79;100136.03;5022600;28;20049;-72
2022/06/19 11:05:00;;;;;;;12.45;3.70;;;;;;;36.91;29.34;100140.50;5024382;28;20060;-72
2022/06/19 11:07:31;;;;;;;14.10;3.63;;;;;;;36.57;28.55;100149.06;5019928;28;20046;-72
2022/06/19 11:10:02;;;;;;;10.48;3.85;;;;;;;36.93;29.28;100150.06;5029369;28;20168;-73
2022/06/19 11:12:34;;;;;;;17.30;4.10;;;;;;;37.20;28.59;100140.91;5026168;28;20075;-72
2022/06/19 11:15:05;;;;;;;12.07;3.80;;;;;;;36.62;27.83;100139.25;5022888;28;20042;-72
2022/06/19 11:17:34;;;;;;;16.00;4.37;;;;;;;36.10;29.77;100146.25;5027593;28;20471;-72
2022/06/19 11:20:24;;;;;;;9.20;3.72;;;;;;;35.11;30.44;100153.84;5043540;28;20118;-72
2022/06/19 11:22:58;;;;;;;7.68;3.40;;;;;;;34.95;30.79;100159.38;5043380;28;20049;-72
2022/06/19 11:25:33;;;;;;;7.85;3.50;;;;;;;35.12;31.70;100163.69;5028588;28;20049;-72
2022/06/19 11:28:07;;;;;;;9.70;3.63;;;;;;;35.35;30.67;100140.81;5023718;28;20568;-72
2022/06/19 11:30:36;;;;;;;12.02;3.40;;;;;;;34.92;30.39;100147.09;5022166;28;20045;-72
2022/06/19 11:33:09;;;;;;;13.75;3.78;;;;;;;35.02;31.29;100146.38;5023799;28;20046;-72
2022/06/19 11:35:46;;;;;;;8.00;3.58;;;;;;;35.33;33.00;100145.69;5023787;28;20045;-72
2022/06/19 11:38:16;;;;;;;12.70;3.78;;;;;;;35.63;31.18;100146.03;5025424;28;20425;-72
2022/06/19 11:40:49;;;;;;;17.83;4.50;;;;;;;35.42;31.97;100155.06;5021389;28;20494;-72
2022/06/19 11:43:27;;;;;;;16.10;3.42;;;;;;;35.49;30.64;100152.97;5023551;28;20041;-72